OEPA

Details ICAO OEPA (AQI)
Name QAISUMAH
Region Saudi Arabia
Timezone Asia/Riyadh (UTC+3.0)
Plans Departing 8
Arriving 10
Stats Elevation 1,174 ft / 358 m (AMSL)
Location 28.335234° 46.124936°
Runways 1
Magnetic Variation 3.614° E
Sunrise 2017-12-15 03:41:24 UTC / 2017-12-15 06:41:24 Local
Sunset 2017-12-15 14:02:35 UTC / 2017-12-15 17:02:35 Local
Advertisement - Login to hide

Runways

ID Width Length Bearing (true) Bearing (mag) Surface Threshold Offset Overrun Length
16 148 ft / 45 m 9,858 ft / 3,005 m 158.31° 154.70° Asphalt 0 ft / 0 m 197 ft / 60 m
34 148 ft / 45 m 9,858 ft / 3,005 m 338.31° 334.70° Asphalt 0 ft / 0 m 197 ft / 60 m

Map

Weather


0- 5 10 15 20 25 30 35+ Temperature / ° C

Clouds and Precipitation
Forecast for 2017-12-15 06:00 UTC. Updated an hour ago

Ground ~20,000 ft ~40,000 ft Winds

METAR

OEPA 150200Z 27004KT CAVOK 08/01 Q1013 NOSIG

TAF

Not found

Frequencies

Unicom 122.80 MHz CTAF
Warning: Do not use this data for real-world aviation or navigation. No guarantee of current accuracy is given.